This is the latest recevied weather packets stored in our database for station/object DJ3OW-13. If no packets are shown the sender has not sent any weather packets the latest 10 day(s).
| Time | Temp. | Humidity | Pressure | Rain* | Wind** | Luminosity | Snow |
|---|---|---|---|---|---|---|---|
| 1777561838 | 19.44° C | 34% | 1032.2 hPa | 0 mm | - | - | - |
| 1777561236 | 19.44° C | 34% | 1032.1 hPa | 0 mm | - | - | - |
| 1777560052 | 18.89° C | 34% | 1032.2 hPa | 0 mm | - | - | - |
| 1777552265 | 17.22° C | 34% | 1033.3 hPa | 0 mm | - | - | - |
| 1777549255 | 15.56° C | 36% | 1033.5 hPa | 0 mm | - | - | - |
| 1777546245 | 15° C | 37% | 1034 hPa | 0 mm | - | - | - |
| 1777545643 | 14.44° C | 36% | 1034.1 hPa | 0 mm | - | - | - |
| 1777543837 | 13.89° C | 37% | 1034.3 hPa | 0 mm | - | - | - |
| 1777539623 | 12.78° C | 39% | 1034.7 hPa | 0 mm | - | - | - |
| 1777539021 | 13.33° C | 37% | 1034.9 hPa | 0 mm | - | - | - |
| 1777533081 | 8.33° C | 60% | 1034.4 hPa | 0 mm | - | - | - |
| 1777528265 | 1.67° C | 80% | 1033.6 hPa | 0 mm | - | - | - |
| 1777525837 | 0.56° C | 86% | 1033.1 hPa | 0 mm | - | - | - |
| 1777519274 | 0.56° C | 86% | 1032.6 hPa | 0 mm | - | - | - |
| 1777511468 | 2.22° C | 82% | 1032.4 hPa | 0 mm | - | - | - |
| 1777509642 | 2.22° C | 82% | 1032.3 hPa | 0 mm | - | - | - |
| 1777507234 | 2.78° C | 79% | 1032.1 hPa | 0 mm | - | - | - |
| 1777505428 | 3.33° C | 78% | 1032.4 hPa | 0 mm | - | - | - |
| 1777501274 | 5.56° C | 67% | 1032.3 hPa | 0 mm | - | - | - |
| 1777500070 | 5.56° C | 66% | 1032.2 hPa | 0 mm | - | - | - |
| 1777498866 | 6.67° C | 60% | 1032.1 hPa | 0 mm | - | - | - |
| 1777496458 | 7.78° C | 56% | 1032 hPa | 0 mm | - | - | - |
| 1777494050 | 10° C | 46% | 1031.9 hPa | 0 mm | - | - | - |
| 1777491641 | 11.11° C | 41% | 1031.7 hPa | 0 mm | - | - | - |
| 1777489855 | 11.67° C | 42% | 1031.5 hPa | 0 mm | - | - | - |
* Rain latest hour (hover to see other rain measurements)
** Current wind speed in m/s (hover to see current wind gust speed)